Time;durP1;ratioP1;P1;durP2;ratioP2;P2;SDS_P1;SDS_P2;PMS_P1;PMS_P2;Temp;Humidity;BMP_temperature;BMP_pressure;BME280_temperature;BME280_humidity;BME280_pressure;Samples;Min_cycle;Max_cycle;Signal;HPM_P1;HPM_P2
2022/11/04 00:01:22;;;;;;;;;;;11.40;99.90;;;;;;4987980;28;20004;-87
2022/11/04 00:03:53;;;;;;;;;;;11.00;99.90;;;;;;5012814;28;19972;-87
2022/11/04 00:06:20;;;;;;;;;;;11.40;99.90;;;;;;5020056;28;20475;-88
2022/11/04 00:08:55;;;;;;;;;;;11.00;99.90;;;;;;5014979;28;19952;-88
2022/11/04 00:14:06;;;;;;;;;;;11.10;99.90;;;;;;5019439;28;19935;-87
2022/11/04 00:19:16;;;;;;;;;;;11.00;99.90;;;;;;5018360;28;19932;-88
2022/11/04 00:29:55;;;;;;;;;;;9.30;99.90;;;;;;4997250;28;19929;-87
2022/11/04 00:35:06;;;;;;;;;;;13.20;99.90;;;;;;4989330;28;19925;-89
2022/11/04 00:37:41;;;;;;;;;;;11.40;99.90;;;;;;4970883;28;20378;-88
2022/11/04 00:40:08;;;;;;;;;;;9.70;99.90;;;;;;4993590;28;19925;-87
2022/11/04 00:42:36;;;;;;;;;;;10.90;99.90;;;;;;4993604;28;19930;-88
2022/11/04 00:45:11;;;;;;;;;;;10.90;99.90;;;;;;4979178;28;20065;-89
2022/11/04 00:47:37;;;;;;;;;;;10.50;99.90;;;;;;4976466;28;20024;-88
2022/11/04 00:50:06;;;;;;;;;;;10.20;99.90;;;;;;4979516;28;20013;-88
2022/11/04 00:52:34;;;;;;;;;;;10.40;99.90;;;;;;4978812;28;20274;-87
2022/11/04 00:54:59;;;;;;;;;;;10.60;99.90;;;;;;4985394;28;19932;-88
2022/11/04 00:57:28;;;;;;;;;;;10.30;99.90;;;;;;5000337;28;19926;-89
2022/11/04 00:59:56;;;;;;;;;;;10.60;99.90;;;;;;5018823;28;19977;-86
2022/11/04 01:02:30;;;;;;;;;;;10.20;99.90;;;;;;5022978;28;20008;-88
2022/11/04 01:04:56;;;;;;;;;;;10.40;99.90;;;;;;5019327;28;19913;-89
2022/11/04 01:07:29;;;;;;;;;;;8.70;99.90;;;;;;5013342;28;19925;-91
2022/11/04 01:09:57;;;;;;;;;;;10.10;99.90;;;;;;4994816;28;19913;-89
2022/11/04 01:12:23;;;;;;;;;;;10.10;99.90;;;;;;5022138;28;19918;-87
2022/11/04 01:14:51;;;;;;;;;;;10.10;99.90;;;;;;5023151;28;19963;-88
2022/11/04 01:17:17;;;;;;;;;;;10.30;99.90;;;;;;5020871;28;19948;-87
2022/11/04 01:19:45;;;;;;;;;;;10.00;99.90;;;;;;5005794;28;19926;-88
2022/11/04 01:22:14;;;;;;;;;;;10.10;99.90;;;;;;4993930;28;19925;-88
2022/11/04 01:24:39;;;;;;;;;;;9.70;99.90;;;;;;4998649;28;20281;-87
2022/11/04 01:27:05;;;;;;;;;;;10.20;99.90;;;;;;5004913;28;19932;-88
2022/11/04 01:29:31;;;;;;;;;;;9.90;99.90;;;;;;5011734;28;19929;-87
2022/11/04 01:31:56;;;;;;;;;;;10.00;99.90;;;;;;5003646;28;19925;-88
2022/11/04 01:34:33;;;;;;;;;;;8.60;99.90;;;;;;4996299;28;19925;-88
2022/11/04 01:37:04;;;;;;;;;;;8.30;99.90;;;;;;4978587;28;19932;-88
2022/11/04 01:39:30;;;;;;;;;;;8.70;99.90;;;;;;5006134;28;19973;-89
2022/11/04 01:41:59;;;;;;;;;;;10.30;99.90;;;;;;4997920;28;19986;-88
2022/11/04 01:44:40;;;;;;;;;;;12.40;99.90;;;;;;4991466;28;20341;-87
2022/11/04 01:47:08;;;;;;;;;;;10.30;99.90;;;;;;4989880;28;19925;-87
2022/11/04 01:49:38;;;;;;;;;;;10.00;99.90;;;;;;4983751;28;19925;-87
2022/11/04 01:52:06;;;;;;;;;;;10.40;99.90;;;;;;4986888;28;19934;-88
2022/11/04 01:54:38;;;;;;;;;;;10.40;99.90;;;;;;4980802;28;19925;-88
2022/11/04 01:57:14;;;;;;;;;;;10.30;99.90;;;;;;4982184;28;20313;-89
2022/11/04 01:59:52;;;;;;;;;;;10.00;99.90;;;;;;4997922;28;19980;-88
2022/11/04 02:02:23;;;;;;;;;;;10.20;99.90;;;;;;4997531;28;20357;-88
2022/11/04 02:04:49;;;;;;;;;;;11.40;99.90;;;;;;4996018;28;19941;-87
2022/11/04 02:07:22;;;;;;;;;;;9.20;99.90;;;;;;4985718;28;19960;-90
2022/11/04 02:10:02;;;;;;;;;;;10.20;99.90;;;;;;4997019;28;19945;-89
2022/11/04 02:15:22;;;;;;;;;;;10.00;99.90;;;;;;4993292;28;20396;-88
2022/11/04 02:17:53;;;;;;;;;;;9.90;99.90;;;;;;4979718;28;19925;-88
2022/11/04 02:20:19;;;;;;;;;;;10.20;99.90;;;;;;4985474;28;20373;-87
2022/11/04 02:23:03;;;;;;;;;;;9.90;99.90;;;;;;5010514;28;19955;-87
2022/11/04 02:25:50;;;;;;;;;;;10.00;99.90;;;;;;5016257;28;19933;-87
2022/11/04 02:28:32;;;;;;;;;;;10.70;99.90;;;;;;5015653;28;19948;-87
2022/11/04 02:30:58;;;;;;;;;;;9.90;99.90;;;;;;5016748;28;19932;-87
2022/11/04 02:33:47;;;;;;;;;;;10.00;99.90;;;;;;5005017;28;20359;-87
2022/11/04 02:36:13;;;;;;;;;;;10.70;99.90;;;;;;4994334;28;19925;-87
2022/11/04 02:38:52;;;;;;;;;;;9.90;99.90;;;;;;5001320;28;19925;-87
2022/11/04 02:41:30;;;;;;;;;;;9.90;99.90;;;;;;5016218;28;19933;-88
2022/11/04 02:44:05;;;;;;;;;;;10.00;99.90;;;;;;5028589;28;19964;-87
2022/11/04 02:46:39;;;;;;;;;;;10.00;99.90;;;;;;4996667;28;19955;-87
2022/11/04 02:49:25;;;;;;;;;;;9.80;99.90;;;;;;5008755;28;19925;-88
2022/11/04 02:51:57;;;;;;;;;;;9.90;99.90;;;;;;4956014;28;20017;-87
2022/11/04 02:54:48;;;;;;;;;;;9.80;99.90;;;;;;5015243;28;19925;-87
2022/11/04 02:57:16;;;;;;;;;;;11.70;99.90;;;;;;5002147;28;19926;-88
2022/11/04 02:59:47;;;;;;;;;;;10.10;99.90;;;;;;5025877;28;19972;-88
2022/11/04 03:02:18;;;;;;;;;;;9.70;99.90;;;;;;5016511;28;19925;-88
2022/11/04 03:04:52;;;;;;;;;;;9.70;99.90;;;;;;5004669;28;19931;-87
2022/11/04 03:07:22;;;;;;;;;;;9.70;99.90;;;;;;5007432;28;19975;-87
2022/11/04 03:09:50;;;;;;;;;;;9.60;99.90;;;;;;5023129;28;19925;-87
2022/11/04 03:12:18;;;;;;;;;;;10.00;99.90;;;;;;5004467;28;19982;-88
2022/11/04 03:14:48;;;;;;;;;;;8.30;99.90;;;;;;4986691;28;19980;-88
2022/11/04 03:17:22;;;;;;;;;;;9.40;99.90;;;;;;4997195;28;19925;-88
2022/11/04 03:20:01;;;;;;;;;;;9.70;99.90;;;;;;4989904;28;19981;-88
2022/11/04 03:22:39;;;;;;;;;;;9.70;99.90;;;;;;5010392;28;19933;-87
2022/11/04 03:25:10;;;;;;;;;;;8.30;99.90;;;;;;4994205;28;19959;-88
2022/11/04 03:27:48;;;;;;;;;;;9.80;99.90;;;;;;4999382;28;19928;-87
2022/11/04 03:30:17;;;;;;;;;;;9.90;99.90;;;;;;4994109;28;19945;-88
2022/11/04 03:32:49;;;;;;;;;;;9.70;99.90;;;;;;4999222;28;19933;-87
2022/11/04 03:35:18;;;;;;;;;;;9.70;99.90;;;;;;5004983;28;19928;-87
2022/11/04 03:37:47;;;;;;;;;;;10.00;99.90;;;;;;5026293;28;19929;-88
2022/11/04 03:40:16;;;;;;;;;;;10.20;99.90;;;;;;5010811;28;19932;-88
2022/11/04 03:42:51;;;;;;;;;;;10.10;99.90;;;;;;5025976;28;19932;-88
2022/11/04 03:45:17;;;;;;;;;;;9.80;99.90;;;;;;5019017;28;19924;-89
2022/11/04 03:47:42;;;;;;;;;;;9.80;99.90;;;;;;5015179;28;19971;-87
2022/11/04 03:50:11;;;;;;;;;;;9.90;99.90;;;;;;5001299;28;20426;-88
2022/11/04 03:52:38;;;;;;;;;;;9.90;99.90;;;;;;5002065;28;19929;-87
2022/11/04 03:55:05;;;;;;;;;;;10.00;99.90;;;;;;5019409;28;19925;-87
2022/11/04 03:57:54;;;;;;;;;;;8.60;99.90;;;;;;5009560;28;19983;-88
2022/11/04 04:00:21;;;;;;;;;;;9.80;99.90;;;;;;5000334;28;20028;-88
2022/11/04 04:02:58;;;;;;;;;;;10.20;99.90;;;;;;5002868;28;19932;-88
2022/11/04 04:05:50;;;;;;;;;;;8.40;99.90;;;;;;5021525;28;19925;-87
2022/11/04 04:08:34;;;;;;;;;;;10.00;99.90;;;;;;4990839;28;19984;-86
2022/11/04 04:11:04;;;;;;;;;;;9.90;99.90;;;;;;5010884;28;19929;-88
2022/11/04 04:13:39;;;;;;;;;;;9.80;99.90;;;;;;4995774;28;20412;-87
2022/11/04 04:16:14;;;;;;;;;;;10.10;99.90;;;;;;5002887;28;19929;-87
2022/11/04 04:18:50;;;;;;;;;;;10.20;99.90;;;;;;4995764;28;20004;-87
2022/11/04 04:21:19;;;;;;;;;;;9.80;99.90;;;;;;5000722;28;19933;-88
2022/11/04 04:29:25;;;;;;;;;;;10.40;99.90;;;;;;5032118;28;19956;-90
2022/11/04 04:31:56;;;;;;;;;;;10.10;99.90;;;;;;5038066;28;19936;-90
2022/11/04 04:34:28;;;;;;;;;;;9.80;99.90;;;;;;5020116;28;20070;-88
2022/11/04 04:37:02;;;;;;;;;;;10.10;99.90;;;;;;5004757;28;19925;-86
2022/11/04 04:45:04;;;;;;;;;;;9.60;99.90;;;;;;5023310;28;19925;-87
2022/11/04 04:47:35;;;;;;;;;;;9.70;99.90;;;;;;5019587;28;20012;-87
2022/11/04 04:50:01;;;;;;;;;;;9.60;99.90;;;;;;5027031;28;19967;-87
2022/11/04 04:52:29;;;;;;;;;;;11.80;99.90;;;;;;5011673;28;19967;-87
2022/11/04 04:55:00;;;;;;;;;;;9.80;99.90;;;;;;5019850;28;19973;-90
2022/11/04 04:57:26;;;;;;;;;;;9.60;99.90;;;;;;5019648;28;19929;-87
2022/11/04 04:59:54;;;;;;;;;;;9.50;99.90;;;;;;4999503;28;20103;-87
2022/11/04 05:02:19;;;;;;;;;;;9.70;99.90;;;;;;5002680;28;19964;-87
2022/11/04 05:04:45;;;;;;;;;;;9.60;99.90;;;;;;5023350;28;19979;-86
2022/11/04 05:07:11;;;;;;;;;;;7.70;99.90;;;;;;5006666;28;19932;-87
2022/11/04 05:09:37;;;;;;;;;;;9.50;99.90;;;;;;5017879;28;19925;-87
2022/11/04 05:12:03;;;;;;;;;;;8.10;99.90;;;;;;5016587;28;19992;-88
2022/11/04 05:14:29;;;;;;;;;;;9.30;99.90;;;;;;5025194;28;20011;-88
2022/11/04 05:16:55;;;;;;;;;;;9.30;99.90;;;;;;5008125;28;20368;-88
2022/11/04 05:19:20;;;;;;;;;;;9.10;99.90;;;;;;5001787;28;19930;-87
2022/11/04 05:21:46;;;;;;;;;;;9.50;99.90;;;;;;5029955;28;19929;-88
2022/11/04 05:24:14;;;;;;;;;;;9.40;99.90;;;;;;5046357;28;19940;-88
2022/11/04 05:26:43;;;;;;;;;;;9.20;99.90;;;;;;5036313;28;19913;-87
2022/11/04 05:29:09;;;;;;;;;;;10.70;99.90;;;;;;5042033;28;19913;-88
2022/11/04 05:31:35;;;;;;;;;;;9.10;99.90;;;;;;5046711;28;19927;-89
2022/11/04 05:34:00;;;;;;;;;;;9.40;99.90;;;;;;5024559;28;19952;-88
2022/11/04 05:36:26;;;;;;;;;;;9.00;99.90;;;;;;5040749;28;19957;-88
2022/11/04 05:38:54;;;;;;;;;;;9.10;99.90;;;;;;5041609;28;19913;-87
2022/11/04 05:41:26;;;;;;;;;;;9.00;99.90;;;;;;5056973;28;19925;-87
2022/11/04 05:43:55;;;;;;;;;;;9.00;99.90;;;;;;5012067;28;19965;-88
2022/11/04 05:46:21;;;;;;;;;;;9.40;99.90;;;;;;5002254;28;19975;-87
2022/11/04 05:48:47;;;;;;;;;;;8.90;99.90;;;;;;5010953;28;19924;-87
2022/11/04 05:51:13;;;;;;;;;;;9.10;99.90;;;;;;5004888;28;19957;-87
2022/11/04 05:53:42;;;;;;;;;;;9.00;99.90;;;;;;4985336;28;20416;-87
2022/11/04 05:56:08;;;;;;;;;;;8.80;99.90;;;;;;4987822;28;19929;-87
2022/11/04 05:58:34;;;;;;;;;;;9.00;99.90;;;;;;5001041;28;19936;-87
2022/11/04 06:01:18;;;;;;;;;;;7.00;99.90;;;;;;5009376;28;19926;-87
2022/11/04 06:03:44;;;;;;;;;;;8.90;99.90;;;;;;5016814;28;19929;-88
2022/11/04 06:06:12;;;;;;;;;;;6.90;99.90;;;;;;4994316;28;19932;-87
2022/11/04 06:08:40;;;;;;;;;;;9.40;99.90;;;;;;5017927;28;20424;-88
2022/11/04 06:11:11;;;;;;;;;;;9.10;99.90;;;;;;5005161;28;19929;-87
2022/11/04 06:13:45;;;;;;;;;;;9.00;99.90;;;;;;5007053;28;19947;-87
2022/11/04 06:19:21;;;;;;;;;;;8.10;99.90;;;;;;4990928;28;19987;-88
2022/11/04 06:21:51;;;;;;;;;;;8.60;99.90;;;;;;5020962;28;20365;-88
2022/11/04 06:24:17;;;;;;;;;;;8.30;99.90;;;;;;4986880;28;19925;-89
2022/11/04 06:26:50;;;;;;;;;;;9.10;99.90;;;;;;5000002;28;20259;-88
2022/11/04 06:29:16;;;;;;;;;;;8.90;99.90;;;;;;5018803;28;19925;-88
2022/11/04 06:31:42;;;;;;;;;;;9.40;99.90;;;;;;4988237;28;19933;-88
2022/11/04 06:34:10;;;;;;;;;;;7.80;99.90;;;;;;5003139;28;20000;-87
2022/11/04 06:36:38;;;;;;;;;;;8.50;99.90;;;;;;5007046;28;19925;-89
2022/11/04 06:39:04;;;;;;;;;;;8.60;99.90;;;;;;5019184;28;19925;-89
2022/11/04 06:41:30;;;;;;;;;;;8.90;99.90;;;;;;5000928;28;19925;-89
2022/11/04 06:43:59;;;;;;;;;;;8.50;99.90;;;;;;4998991;28;19933;-89
2022/11/04 06:46:32;;;;;;;;;;;8.70;99.90;;;;;;4989933;28;20457;-89
2022/11/04 06:48:58;;;;;;;;;;;8.30;99.90;;;;;;5002641;28;19932;-89
2022/11/04 06:51:27;;;;;;;;;;;8.60;99.90;;;;;;4992613;28;19925;-89
2022/11/04 06:53:52;;;;;;;;;;;8.30;99.90;;;;;;4998280;28;19925;-89
2022/11/04 06:56:18;;;;;;;;;;;8.30;99.90;;;;;;5006541;28;20388;-89
2022/11/04 07:02:03;;;;;;;;;;;8.40;99.90;;;;;;5010346;28;20441;-90
2022/11/04 07:04:45;;;;;;;;;;;8.10;99.90;;;;;;4998351;28;19932;-89
2022/11/04 07:07:11;;;;;;;;;;;7.50;99.90;;;;;;5001563;28;19932;-88
2022/11/04 07:09:39;;;;;;;;;;;8.10;99.90;;;;;;5018142;28;19936;-88
2022/11/04 07:12:05;;;;;;;;;;;8.20;99.90;;;;;;5008539;28;19936;-89
2022/11/04 07:14:36;;;;;;;;;;;8.30;99.90;;;;;;5004499;28;19926;-90
2022/11/04 07:17:05;;;;;;;;;;;6.60;99.90;;;;;;5008295;28;19929;-90
2022/11/04 07:22:54;;;;;;;;;;;8.40;99.90;;;;;;5028935;28;19937;-94
2022/11/04 07:25:23;;;;;;;;;;;6.60;99.90;;;;;;5015081;28;20004;-90
2022/11/04 07:27:58;;;;;;;;;;;;;;;;;;;;;
2022/11/04 07:30:50;;;;;;;;;;;7.10;99.90;;;;;;5034774;28;19925;-89
2022/11/04 07:39:53;;;;;;;;;;;7.80;99.90;;;;;;4884554;28;19960;-91
2022/11/04 08:02:57;;;;;;;;;;;9.20;99.90;;;;;;4998194;22;19982;-95
2022/11/04 08:05:23;;;;;;;;;;;8.40;99.90;;;;;;5000636;28;20007;-93
2022/11/04 08:07:48;;;;;;;;;;;8.40;99.90;;;;;;5043458;28;19978;-93
2022/11/04 08:10:14;;;;;;;;;;;8.40;99.90;;;;;;5010992;28;19925;-94
2022/11/04 08:12:39;;;;;;;;;;;8.50;99.90;;;;;;5025908;28;19929;-93
2022/11/04 08:15:05;;;;;;;;;;;8.50;99.90;;;;;;5013894;28;19964;-93
2022/11/04 08:17:31;;;;;;;;;;;8.50;99.90;;;;;;5025533;28;20424;-94
2022/11/04 08:19:56;;;;;;;;;;;8.50;99.90;;;;;;5045633;28;20012;-94
2022/11/04 08:22:22;;;;;;;;;;;7.20;99.90;;;;;;5010068;28;19925;-93
2022/11/04 08:24:48;;;;;;;;;;;8.60;99.90;;;;;;5044109;28;19932;-93
2022/11/04 08:27:13;;;;;;;;;;;8.60;99.90;;;;;;5030300;28;20407;-94
2022/11/04 08:29:39;;;;;;;;;;;8.70;99.90;;;;;;5045240;28;19928;-93
2022/11/04 08:32:06;;;;;;;;;;;8.70;99.90;;;;;;5028643;28;19929;-92
2022/11/04 08:34:31;;;;;;;;;;;8.70;99.90;;;;;;5027281;28;19931;-95
2022/11/04 08:36:57;;;;;;;;;;;8.80;99.90;;;;;;5029004;28;19980;-94
2022/11/04 08:39:23;;;;;;;;;;;8.80;99.90;;;;;;5046051;28;19935;-92
2022/11/04 08:41:49;;;;;;;;;;;8.80;99.90;;;;;;5028091;28;20292;-92
2022/11/04 08:44:15;;;;;;;;;;;8.90;99.90;;;;;;5006959;28;19929;-94
2022/11/04 08:46:42;;;;;;;;;;;8.90;99.90;;;;;;5045578;28;19924;-92
2022/11/04 08:49:08;;;;;;;;;;;8.90;99.90;;;;;;5020809;28;19925;-94
2022/11/04 08:51:36;;;;;;;;;;;9.00;99.90;;;;;;5028772;28;19983;-93
2022/11/04 08:54:03;;;;;;;;;;;9.00;99.90;;;;;;5022085;28;20349;-93
2022/11/04 08:56:30;;;;;;;;;;;9.00;99.90;;;;;;5054960;28;19933;-93
2022/11/04 08:58:57;;;;;;;;;;;9.00;99.90;;;;;;5057870;28;19928;-94
2022/11/04 09:01:23;;;;;;;;;;;9.10;99.90;;;;;;5037261;28;19924;-92
2022/11/04 09:03:53;;;;;;;;;;;9.10;99.90;;;;;;5031911;28;19987;-96
2022/11/04 09:06:24;;;;;;;;;;;7.30;99.90;;;;;;5027680;28;19955;-95
2022/11/04 09:08:51;;;;;;;;;;;9.20;99.90;;;;;;5031952;28;19928;-95
2022/11/04 09:11:17;;;;;;;;;;;9.20;99.90;;;;;;5011956;28;19924;-95
2022/11/04 09:13:43;;;;;;;;;;;9.40;99.90;;;;;;5040534;28;20377;-95
2022/11/04 09:16:10;;;;;;;;;;;9.30;99.90;;;;;;5032830;28;19925;-93
2022/11/04 09:18:36;;;;;;;;;;;9.40;99.90;;;;;;5031027;28;19924;-96
2022/11/04 09:21:03;;;;;;;;;;;9.40;99.90;;;;;;5014346;28;20009;-95
2022/11/04 09:23:30;;;;;;;;;;;9.50;99.90;;;;;;5027512;28;19925;-94
2022/11/04 09:25:57;;;;;;;;;;;9.60;99.90;;;;;;5036613;28;19929;-95
2022/11/04 09:28:24;;;;;;;;;;;9.70;99.90;;;;;;5021897;28;19947;-95
2022/11/04 09:30:50;;;;;;;;;;;9.90;99.90;;;;;;5035974;28;19920;-96
2022/11/04 09:33:16;;;;;;;;;;;9.60;99.90;;;;;;5033520;28;19928;-94
2022/11/04 09:35:42;;;;;;;;;;;9.70;99.90;;;;;;5033597;28;19925;-96
2022/11/04 09:38:08;;;;;;;;;;;9.90;99.90;;;;;;5036188;28;19928;-95
2022/11/04 09:40:34;;;;;;;;;;;12.10;99.90;;;;;;5035540;28;19925;-95
2022/11/04 09:43:06;;;;;;;;;;;8.80;99.90;;;;;;5060479;28;20001;-95
2022/11/04 09:45:32;;;;;;;;;;;10.00;99.90;;;;;;5023994;28;19940;-93
2022/11/04 09:48:07;;;;;;;;;;;10.10;99.90;;;;;;5036583;28;19936;-94
2022/11/04 09:50:52;;;;;;;;;;;9.50;99.90;;;;;;5039467;28;19925;-95
2022/11/04 09:53:27;;;;;;;;;;;10.70;99.90;;;;;;5054613;28;19933;-96
2022/11/04 09:55:59;;;;;;;;;;;10.20;99.90;;;;;;5039588;28;19920;-95
2022/11/04 09:58:36;;;;;;;;;;;10.40;99.90;;;;;;5047162;28;19924;-95
2022/11/04 10:01:19;;;;;;;;;;;9.80;99.90;;;;;;5042077;28;19932;-96
2022/11/04 10:03:57;;;;;;;;;;;11.40;99.90;;;;;;5052018;28;19960;-95
2022/11/04 10:06:45;;;;;;;;;;;12.90;99.90;;;;;;5058876;28;19925;-96
2022/11/04 10:09:20;;;;;;;;;;;10.60;99.90;;;;;;5080371;23;19925;-94
2022/11/04 10:11:55;;;;;;;;;;;10.70;99.90;;;;;;5045319;28;19940;-94
2022/11/04 10:14:28;;;;;;;;;;;11.40;99.90;;;;;;5045563;28;19929;-94
2022/11/04 10:17:09;;;;;;;;;;;10.80;99.90;;;;;;5030633;28;19934;-96
2022/11/04 10:19:35;;;;;;;;;;;10.90;99.90;;;;;;5031855;28;19936;-95
2022/11/04 10:22:16;;;;;;;;;;;11.00;99.90;;;;;;5029601;28;19925;-96
2022/11/04 10:24:45;;;;;;;;;;;11.00;99.90;;;;;;5044627;28;19929;-93
2022/11/04 10:27:20;;;;;;;;;;;11.10;99.90;;;;;;5046762;28;19933;-93
2022/11/04 10:29:51;;;;;;;;;;;11.10;99.90;;;;;;5034425;28;19933;-94
2022/11/04 10:32:21;;;;;;;;;;;11.20;99.90;;;;;;5031461;28;19940;-93
2022/11/04 10:34:52;;;;;;;;;;;11.30;99.90;;;;;;5040158;28;19939;-95
2022/11/04 10:37:17;;;;;;;;;;;11.30;99.90;;;;;;5045202;28;19931;-93
2022/11/04 10:39:44;;;;;;;;;;;11.40;99.90;;;;;;5021367;28;20029;-94
2022/11/04 10:42:15;;;;;;;;;;;11.50;99.90;;;;;;5048676;28;19920;-95
2022/11/04 10:44:42;;;;;;;;;;;11.50;99.90;;;;;;5024153;28;20235;-92
2022/11/04 10:47:10;;;;;;;;;;;11.60;99.90;;;;;;5000153;28;19991;-94
2022/11/04 10:49:42;;;;;;;;;;;11.60;99.90;;;;;;5048546;28;19939;-95
2022/11/04 10:52:09;;;;;;;;;;;11.70;99.90;;;;;;5062142;28;19924;-94
2022/11/04 10:54:39;;;;;;;;;;;11.70;99.90;;;;;;5050456;28;19925;-92
2022/11/04 10:57:04;;;;;;;;;;;11.80;99.90;;;;;;5064221;28;20712;-94
2022/11/04 10:59:50;;;;;;;;;;;11.90;99.90;;;;;;5018986;28;19929;-92
2022/11/04 11:02:16;;;;;;;;;;;12.00;99.90;;;;;;5037744;28;19931;-94
2022/11/04 11:04:46;;;;;;;;;;;12.00;99.90;;;;;;5055161;28;19932;-93
2022/11/04 11:07:17;;;;;;;;;;;12.10;99.90;;;;;;5038748;28;19988;-93
2022/11/04 11:09:50;;;;;;;;;;;12.30;99.90;;;;;;5055578;28;19932;-94
2022/11/04 11:12:39;;;;;;;;;;;12.40;99.90;;;;;;5041519;28;19925;-93
2022/11/04 11:15:37;;;;;;;;;;;11.60;99.90;;;;;;5028172;28;19935;-92
2022/11/04 11:18:09;;;;;;;;;;;12.30;99.90;;;;;;4997330;28;19925;-94
2022/11/04 11:20:36;;;;;;;;;;;12.10;99.90;;;;;;5032378;28;19948;-95
2022/11/04 11:23:08;;;;;;;;;;;12.10;99.90;;;;;;5047403;28;19996;-94
2022/11/04 11:25:34;;;;;;;;;;;12.10;99.90;;;;;;5030400;28;19972;-94
2022/11/04 11:28:01;;;;;;;;;;;12.20;99.90;;;;;;5030977;28;19924;-94
2022/11/04 11:30:31;;;;;;;;;;;12.10;99.90;;;;;;5029159;28;19928;-95
2022/11/04 11:33:02;;;;;;;;;;;12.10;99.90;;;;;;5035683;28;19948;-96
2022/11/04 11:35:30;;;;;;;;;;;12.20;99.90;;;;;;5030742;28;19988;-96
2022/11/04 11:37:56;;;;;;;;;;;12.40;99.90;;;;;;5037075;28;19925;-94
2022/11/04 11:40:24;;;;;;;;;;;12.50;99.90;;;;;;5043738;28;20270;-95
2022/11/04 11:42:49;;;;;;;;;;;12.50;99.90;;;;;;5025666;28;19928;-96
2022/11/04 11:45:15;;;;;;;;;;;12.60;99.90;;;;;;5046574;28;20352;-96
2022/11/04 11:47:42;;;;;;;;;;;12.60;99.90;;;;;;5022572;28;19993;-95
2022/11/04 11:50:17;;;;;;;;;;;12.50;99.90;;;;;;5030308;28;19949;-96
2022/11/04 11:52:43;;;;;;;;;;;12.40;99.90;;;;;;5017416;28;19925;-94
2022/11/04 11:55:48;;;;;;;;;;;12.20;99.90;;;;;;5029333;28;19976;-94
2022/11/04 11:58:17;;;;;;;;;;;12.10;99.90;;;;;;4965682;28;20513;-96
2022/11/04 12:01:11;;;;;;;;;;;12.00;99.90;;;;;;4963534;28;19956;-96
2022/11/04 12:03:39;;;;;;;;;;;12.00;99.90;;;;;;4997563;28;19932;-95
2022/11/04 12:06:14;;;;;;;;;;;12.00;99.90;;;;;;5033265;28;20246;-96
2022/11/04 12:08:48;;;;;;;;;;;12.20;99.90;;;;;;5033879;28;19929;-95
2022/11/04 12:11:29;;;;;;;;;;;12.40;99.90;;;;;;5020082;28;19925;-94
2022/11/04 12:13:57;;;;;;;;;;;12.60;99.90;;;;;;5032312;28;19933;-96
2022/11/04 12:16:31;;;;;;;;;;;12.60;99.90;;;;;;5031776;28;19940;-96
2022/11/04 12:19:16;;;;;;;;;;;12.40;99.90;;;;;;5051021;28;19959;-95
2022/11/04 12:21:53;;;;;;;;;;;12.30;99.90;;;;;;5029468;28;19924;-95
2022/11/04 12:24:19;;;;;;;;;;;12.10;99.90;;;;;;5029371;28;20304;-95
2022/11/04 12:26:52;;;;;;;;;;;11.90;99.90;;;;;;5027818;28;19932;-96
2022/11/04 12:29:35;;;;;;;;;;;11.80;99.90;;;;;;5025795;28;20387;-96
2022/11/04 12:32:09;;;;;;;;;;;11.70;99.90;;;;;;5019069;28;19933;-95
2022/11/04 12:34:34;;;;;;;;;;;11.50;99.90;;;;;;4994849;28;19926;-95
2022/11/04 12:37:19;;;;;;;;;;;11.40;99.90;;;;;;5011748;28;19932;-95
2022/11/04 12:40:06;;;;;;;;;;;11.30;99.90;;;;;;5032086;28;19941;-96
2022/11/04 12:42:56;;;;;;;;;;;11.30;99.90;;;;;;5009894;28;19932;-96
2022/11/04 12:45:22;;;;;;;;;;;11.30;99.90;;;;;;5024308;28;19925;-95
2022/11/04 12:47:48;;;;;;;;;;;11.20;99.90;;;;;;5023801;28;19925;-95
2022/11/04 12:50:32;;;;;;;;;;;11.20;99.90;;;;;;5004655;28;19924;-95
2022/11/04 12:53:17;;;;;;;;;;;11.10;99.90;;;;;;5009057;28;19937;-96
2022/11/04 12:55:45;;;;;;;;;;;11.20;99.90;;;;;;5026453;28;19925;-95
2022/11/04 12:58:17;;;;;;;;;;;11.20;99.90;;;;;;5012516;28;19932;-95
2022/11/04 13:00:45;;;;;;;;;;;11.20;99.90;;;;;;5044939;28;19925;-96
2022/11/04 13:03:14;;;;;;;;;;;11.20;99.90;;;;;;5029118;28;19929;-95
2022/11/04 13:05:58;;;;;;;;;;;11.20;99.90;;;;;;5027079;28;19980;-95
2022/11/04 13:08:30;;;;;;;;;;;11.20;99.90;;;;;;5019842;28;19936;-96
2022/11/04 13:11:21;;;;;;;;;;;11.10;99.90;;;;;;5036689;28;19925;-96
2022/11/04 13:14:06;;;;;;;;;;;11.20;99.90;;;;;;5032162;28;19929;-96
2022/11/04 13:16:33;;;;;;;;;;;11.30;99.90;;;;;;5013399;28;19936;-96
2022/11/04 13:19:00;;;;;;;;;;;11.50;99.90;;;;;;5041675;28;19925;-96
2022/11/04 13:21:29;;;;;;;;;;;11.70;99.90;;;;;;5053030;28;19925;-95
2022/11/04 13:23:57;;;;;;;;;;;11.80;99.90;;;;;;5036316;28;19952;-96
2022/11/04 13:26:22;;;;;;;;;;;11.90;99.90;;;;;;5072326;28;19986;-95
2022/11/04 13:28:58;;;;;;;;;;;12.10;99.90;;;;;;5049754;28;19956;-96
2022/11/04 13:31:30;;;;;;;;;;;12.20;99.90;;;;;;5013438;28;19925;-96
2022/11/04 13:34:05;;;;;;;;;;;12.20;99.90;;;;;;5045993;28;19925;-96
2022/11/04 13:36:39;;;;;;;;;;;12.30;99.90;;;;;;5045056;28;19924;-96
2022/11/04 13:39:13;;;;;;;;;;;12.30;99.90;;;;;;5058341;28;19947;-96
2022/11/04 13:41:38;;;;;;;;;;;12.40;99.90;;;;;;5015772;28;19925;-96
2022/11/04 13:44:12;;;;;;;;;;;12.50;99.90;;;;;;5045308;28;19924;-96
2022/11/04 13:46:38;;;;;;;;;;;12.50;99.90;;;;;;5066751;28;19988;-96
2022/11/04 13:49:05;;;;;;;;;;;12.60;99.90;;;;;;5032530;28;19935;-95
2022/11/04 13:51:36;;;;;;;;;;;12.50;99.90;;;;;;5034157;28;19925;-96
2022/11/04 13:54:02;;;;;;;;;;;12.40;99.90;;;;;;5033065;28;19924;-96
2022/11/04 13:56:30;;;;;;;;;;;12.30;99.90;;;;;;5041581;28;19925;-96
2022/11/04 13:59:15;;;;;;;;;;;12.30;99.90;;;;;;5041743;28;19980;-96
2022/11/04 14:01:43;;;;;;;;;;;12.20;99.90;;;;;;5029121;28;19975;-95
2022/11/04 14:04:12;;;;;;;;;;;12.20;99.90;;;;;;5028488;28;19925;-96
2022/11/04 14:07:10;;;;;;;;;;;12.20;99.90;;;;;;5054101;28;19925;-96
2022/11/04 14:09:42;;;;;;;;;;;12.20;99.90;;;;;;4992580;28;19926;-95
2022/11/04 14:12:13;;;;;;;;;;;12.20;99.90;;;;;;5055477;28;20486;-95
2022/11/04 14:14:40;;;;;;;;;;;12.20;99.90;;;;;;5027493;28;19925;-95
2022/11/04 14:17:25;;;;;;;;;;;12.20;99.90;;;;;;5062264;28;20037;-96
2022/11/04 14:19:54;;;;;;;;;;;12.30;99.90;;;;;;5040825;28;19925;-95
2022/11/04 14:22:20;;;;;;;;;;;12.30;99.90;;;;;;5038860;28;19925;-96
2022/11/04 14:24:53;;;;;;;;;;;12.30;99.90;;;;;;5044403;28;19936;-96
2022/11/04 14:27:23;;;;;;;;;;;12.30;99.90;;;;;;5054111;28;19924;-96
2022/11/04 14:29:51;;;;;;;;;;;12.20;99.90;;;;;;5032238;28;19935;-96
2022/11/04 14:32:21;;;;;;;;;;;12.10;99.90;;;;;;5056754;28;19935;-96
2022/11/04 14:34:55;;;;;;;;;;;12.10;99.90;;;;;;5033935;28;19941;-95
2022/11/04 14:37:24;;;;;;;;;;;12.00;99.90;;;;;;5033392;28;19933;-96
2022/11/04 14:39:54;;;;;;;;;;;12.00;99.90;;;;;;5031541;28;19976;-96
2022/11/04 14:42:39;;;;;;;;;;;12.00;99.90;;;;;;5053198;28;19924;-95
2022/11/04 14:45:07;;;;;;;;;;;12.00;99.90;;;;;;5050045;28;19925;-96
2022/11/04 14:47:36;;;;;;;;;;;12.00;99.90;;;;;;5048915;28;19925;-95
2022/11/04 14:50:07;;;;;;;;;;;12.00;99.90;;;;;;5031223;28;19932;-96
2022/11/04 14:52:51;;;;;;;;;;;11.90;99.90;;;;;;5024020;28;19925;-96
2022/11/04 14:55:22;;;;;;;;;;;11.90;99.90;;;;;;5032563;28;19935;-95
2022/11/04 14:57:49;;;;;;;;;;;11.70;99.90;;;;;;5018441;28;19925;-96
2022/11/04 15:00:21;;;;;;;;;;;11.60;99.90;;;;;;5048437;28;19925;-96
2022/11/04 15:02:47;;;;;;;;;;;11.50;99.90;;;;;;5023182;28;20302;-96
2022/11/04 15:05:25;;;;;;;;;;;11.40;99.90;;;;;;4986323;28;19968;-96
2022/11/04 15:07:51;;;;;;;;;;;11.20;99.90;;;;;;5017444;28;19982;-96
2022/11/04 15:10:23;;;;;;;;;;;11.10;99.90;;;;;;5048417;28;19925;-96
2022/11/04 15:12:50;;;;;;;;;;;10.90;99.90;;;;;;5036596;28;19961;-96
2022/11/04 15:15:25;;;;;;;;;;;10.70;99.90;;;;;;5053339;28;19945;-96
2022/11/04 15:17:52;;;;;;;;;;;10.60;99.90;;;;;;5029040;28;19925;-96
2022/11/04 15:20:23;;;;;;;;;;;10.40;99.90;;;;;;5046869;28;19925;-96
2022/11/04 15:22:50;;;;;;;;;;;10.20;99.90;;;;;;5049880;28;19964;-96
2022/11/04 15:25:17;;;;;;;;;;;10.10;99.90;;;;;;5028877;28;19972;-96
2022/11/04 15:27:42;;;;;;;;;;;9.90;99.90;;;;;;5028640;28;19957;-96
2022/11/04 15:30:17;;;;;;;;;;;9.80;99.90;;;;;;5001259;28;19925;-96
2022/11/04 15:32:52;;;;;;;;;;;9.70;99.90;;;;;;5024496;28;19925;-96
2022/11/04 15:35:17;;;;;;;;;;;9.60;99.90;;;;;;5018702;28;19925;-96
2022/11/04 15:37:43;;;;;;;;;;;9.50;99.90;;;;;;5029345;28;20230;-96
2022/11/04 15:40:13;;;;;;;;;;;9.50;99.90;;;;;;5025020;28;19942;-95
2022/11/04 15:42:39;;;;;;;;;;;9.40;99.90;;;;;;5019149;28;20228;-96
2022/11/04 15:45:23;;;;;;;;;;;9.30;99.90;;;;;;5033979;28;19921;-96
2022/11/04 15:48:09;;;;;;;;;;;9.30;99.90;;;;;;5057282;28;19952;-96
2022/11/04 15:50:34;;;;;;;;;;;9.20;99.90;;;;;;5053121;28;19925;-96
2022/11/04 15:53:00;;;;;;;;;;;9.10;99.90;;;;;;5030829;28;20301;-96